Attleboro, Massachusetts
Current Conditions -  °F | °C
As of 5:35 AM on Thursday 18 Dec 2014 (Local Time) from KSFZ Reporting Station
Overcast Overcast  
Wind Chill: 27°   Ceiling: 3300
Heat Index: 36°   Visibility: 10mi
Dew Point: 25°   Wind: 13mph
Humidity: 65%   Direction: 270°W
Pressure: 29.74"   Gusts: 16mph
Location:  41.95°N, 71.28°W
Report Text: KSFZ 181035Z 27011G14KT 10SM FEW024 BKN033 OVC060 02/M04 A2974 RMK AO1
Loading
Personal Weather Stations






























Interactive Weather Map New forecast layout! Learn more

10-Day Weather Forecast

Advertisements
Track Severe Weather on mobile